sensor_id;sensor_type;location;lat;lon;timestamp;P1;durP1;ratioP1;P2;durP2;ratioP2
42420;SDS011;28063;48.140;11.588;2023-02-28T00:02:07;4.20;;;1.80;;
42420;SDS011;28063;48.140;11.588;2023-02-28T00:04:33;4.47;;;2.10;;
42420;SDS011;28063;48.140;11.588;2023-02-28T00:06:58;3.20;;;1.90;;
42420;SDS011;28063;48.140;11.588;2023-02-28T00:09:24;4.25;;;1.88;;
42420;SDS011;28063;48.140;11.588;2023-02-28T00:11:50;2.13;;;1.50;;
42420;SDS011;28063;48.140;11.588;2023-02-28T00:14:15;1.52;;;1.20;;
42420;SDS011;28063;48.140;11.588;2023-02-28T00:16:41;2.55;;;1.40;;
42420;SDS011;28063;48.140;11.588;2023-02-28T00:19:07;3.10;;;1.27;;
42420;SDS011;28063;48.140;11.588;2023-02-28T00:21:33;3.58;;;1.40;;
42420;SDS011;28063;48.140;11.588;2023-02-28T00:23:58;3.28;;;1.92;;
42420;SDS011;28063;48.140;11.588;2023-02-28T00:26:24;3.35;;;1.73;;
42420;SDS011;28063;48.140;11.588;2023-02-28T00:28:51;3.33;;;1.92;;
42420;SDS011;28063;48.140;11.588;2023-02-28T00:31:17;2.42;;;1.38;;
42420;SDS011;28063;48.140;11.588;2023-02-28T00:33:43;4.75;;;1.70;;
42420;SDS011;28063;48.140;11.588;2023-02-28T00:36:09;2.17;;;1.15;;
42420;SDS011;28063;48.140;11.588;2023-02-28T00:38:37;5.68;;;1.95;;
42420;SDS011;28063;48.140;11.588;2023-02-28T00:41:03;1.92;;;1.33;;
42420;SDS011;28063;48.140;11.588;2023-02-28T00:43:30;3.80;;;1.83;;
42420;SDS011;28063;48.140;11.588;2023-02-28T00:45:56;2.58;;;1.60;;
42420;SDS011;28063;48.140;11.588;2023-02-28T00:48:22;3.63;;;1.50;;
42420;SDS011;28063;48.140;11.588;2023-02-28T00:50:48;3.53;;;1.90;;
42420;SDS011;28063;48.140;11.588;2023-02-28T00:53:14;3.72;;;1.80;;
42420;SDS011;28063;48.140;11.588;2023-02-28T00:55:40;5.55;;;2.17;;
42420;SDS011;28063;48.140;11.588;2023-02-28T00:58:06;3.25;;;1.80;;
42420;SDS011;28063;48.140;11.588;2023-02-28T01:00:31;6.18;;;1.90;;
42420;SDS011;28063;48.140;11.588;2023-02-28T01:02:57;5.30;;;2.20;;
42420;SDS011;28063;48.140;11.588;2023-02-28T01:05:23;6.32;;;2.65;;
42420;SDS011;28063;48.140;11.588;2023-02-28T01:07:48;2.80;;;1.98;;
42420;SDS011;28063;48.140;11.588;2023-02-28T01:10:14;3.15;;;1.80;;
42420;SDS011;28063;48.140;11.588;2023-02-28T01:12:40;4.95;;;2.33;;
42420;SDS011;28063;48.140;11.588;2023-02-28T01:15:06;4.13;;;2.05;;
42420;SDS011;28063;48.140;11.588;2023-02-28T01:17:32;2.80;;;1.85;;
42420;SDS011;28063;48.140;11.588;2023-02-28T01:19:57;4.82;;;2.58;;
42420;SDS011;28063;48.140;11.588;2023-02-28T01:22:23;4.15;;;1.98;;
42420;SDS011;28063;48.140;11.588;2023-02-28T01:24:49;3.55;;;1.40;;
42420;SDS011;28063;48.140;11.588;2023-02-28T01:27:14;3.15;;;1.83;;
42420;SDS011;28063;48.140;11.588;2023-02-28T01:29:40;2.63;;;1.77;;
42420;SDS011;28063;48.140;11.588;2023-02-28T01:32:05;4.05;;;1.63;;
42420;SDS011;28063;48.140;11.588;2023-02-28T01:34:31;2.50;;;1.27;;
42420;SDS011;28063;48.140;11.588;2023-02-28T01:36:57;4.07;;;1.80;;
42420;SDS011;28063;48.140;11.588;2023-02-28T01:39:23;4.78;;;2.25;;
42420;SDS011;28063;48.140;11.588;2023-02-28T01:41:50;6.00;;;1.85;;
42420;SDS011;28063;48.140;11.588;2023-02-28T01:47:18;5.03;;;2.00;;
42420;SDS011;28063;48.140;11.588;2023-02-28T01:49:44;2.78;;;1.80;;
42420;SDS011;28063;48.140;11.588;2023-02-28T01:52:10;4.78;;;1.90;;
42420;SDS011;28063;48.140;11.588;2023-02-28T01:54:43;3.92;;;2.10;;
42420;SDS011;28063;48.140;11.588;2023-02-28T01:57:14;3.25;;;1.98;;
42420;SDS011;28063;48.140;11.588;2023-02-28T01:59:45;5.43;;;2.33;;
42420;SDS011;28063;48.140;11.588;2023-02-28T02:02:17;4.40;;;2.30;;
42420;SDS011;28063;48.140;11.588;2023-02-28T02:05:05;7.78;;;2.75;;
42420;SDS011;28063;48.140;11.588;2023-02-28T02:07:34;2.78;;;1.67;;
42420;SDS011;28063;48.140;11.588;2023-02-28T02:10:10;3.05;;;1.50;;
42420;SDS011;28063;48.140;11.588;2023-02-28T02:15:16;2.88;;;2.15;;
42420;SDS011;28063;48.140;11.588;2023-02-28T02:23:56;5.38;;;2.83;;
42420;SDS011;28063;48.140;11.588;2023-02-28T02:35:12;4.60;;;2.65;;
42420;SDS011;28063;48.140;11.588;2023-02-28T02:37:57;3.33;;;2.35;;
42420;SDS011;28063;48.140;11.588;2023-02-28T02:43:28;6.97;;;2.58;;
42420;SDS011;28063;48.140;11.588;2023-02-28T02:46:06;7.55;;;2.30;;
42420;SDS011;28063;48.140;11.588;2023-02-28T02:48:38;4.53;;;2.60;;
42420;SDS011;28063;48.140;11.588;2023-02-28T02:51:09;5.13;;;2.58;;
42420;SDS011;28063;48.140;11.588;2023-02-28T02:53:40;3.92;;;2.20;;
42420;SDS011;28063;48.140;11.588;2023-02-28T02:56:11;3.20;;;1.80;;
42420;SDS011;28063;48.140;11.588;2023-02-28T02:58:40;4.75;;;2.47;;
42420;SDS011;28063;48.140;11.588;2023-02-28T03:01:08;5.47;;;2.90;;
42420;SDS011;28063;48.140;11.588;2023-02-28T03:03:38;4.55;;;2.60;;
42420;SDS011;28063;48.140;11.588;2023-02-28T03:06:04;6.22;;;2.58;;
42420;SDS011;28063;48.140;11.588;2023-02-28T03:08:33;2.78;;;2.10;;
42420;SDS011;28063;48.140;11.588;2023-02-28T03:11:01;7.43;;;3.47;;
42420;SDS011;28063;48.140;11.588;2023-02-28T03:19:04;6.30;;;2.80;;
42420;SDS011;28063;48.140;11.588;2023-02-28T03:21:39;6.13;;;2.53;;
42420;SDS011;28063;48.140;11.588;2023-02-28T03:26:40;4.97;;;3.00;;
42420;SDS011;28063;48.140;11.588;2023-02-28T03:31:54;5.22;;;2.85;;
42420;SDS011;28063;48.140;11.588;2023-02-28T03:34:36;5.70;;;2.83;;
42420;SDS011;28063;48.140;11.588;2023-02-28T03:37:12;4.80;;;3.03;;
42420;SDS011;28063;48.140;11.588;2023-02-28T03:39:43;6.78;;;3.65;;
42420;SDS011;28063;48.140;11.588;2023-02-28T03:42:14;5.97;;;3.63;;
42420;SDS011;28063;48.140;11.588;2023-02-28T03:44:48;6.93;;;3.50;;
42420;SDS011;28063;48.140;11.588;2023-02-28T03:47:29;7.80;;;3.80;;
42420;SDS011;28063;48.140;11.588;2023-02-28T03:52:42;6.22;;;3.05;;
42420;SDS011;28063;48.140;11.588;2023-02-28T03:55:14;4.55;;;3.33;;
42420;SDS011;28063;48.140;11.588;2023-02-28T03:57:51;8.70;;;3.42;;
42420;SDS011;28063;48.140;11.588;2023-02-28T04:00:39;7.18;;;3.70;;
42420;SDS011;28063;48.140;11.588;2023-02-28T04:03:10;8.35;;;4.13;;
42420;SDS011;28063;48.140;11.588;2023-02-28T04:05:45;7.63;;;3.63;;
42420;SDS011;28063;48.140;11.588;2023-02-28T04:08:17;6.25;;;3.47;;
42420;SDS011;28063;48.140;11.588;2023-02-28T04:10:43;8.32;;;3.75;;
42420;SDS011;28063;48.140;11.588;2023-02-28T04:13:12;6.82;;;4.03;;
42420;SDS011;28063;48.140;11.588;2023-02-28T04:15:37;8.73;;;4.20;;
42420;SDS011;28063;48.140;11.588;2023-02-28T04:18:03;9.13;;;4.75;;
42420;SDS011;28063;48.140;11.588;2023-02-28T04:20:28;5.90;;;3.78;;
42420;SDS011;28063;48.140;11.588;2023-02-28T04:22:54;6.13;;;3.53;;
42420;SDS011;28063;48.140;11.588;2023-02-28T04:25:19;8.05;;;4.40;;
42420;SDS011;28063;48.140;11.588;2023-02-28T04:27:45;8.18;;;4.18;;
42420;SDS011;28063;48.140;11.588;2023-02-28T04:30:11;8.82;;;4.18;;
42420;SDS011;28063;48.140;11.588;2023-02-28T04:32:37;7.93;;;4.53;;
42420;SDS011;28063;48.140;11.588;2023-02-28T04:35:03;7.75;;;5.25;;
42420;SDS011;28063;48.140;11.588;2023-02-28T04:37:29;10.73;;;4.75;;
42420;SDS011;28063;48.140;11.588;2023-02-28T04:40:00;10.43;;;5.07;;
42420;SDS011;28063;48.140;11.588;2023-02-28T04:42:32;9.73;;;5.40;;
42420;SDS011;28063;48.140;11.588;2023-02-28T04:45:01;8.88;;;5.13;;
42420;SDS011;28063;48.140;11.588;2023-02-28T04:47:27;9.48;;;4.88;;
42420;SDS011;28063;48.140;11.588;2023-02-28T04:49:53;9.48;;;5.47;;
42420;SDS011;28063;48.140;11.588;2023-02-28T04:52:19;11.55;;;6.20;;
42420;SDS011;28063;48.140;11.588;2023-02-28T04:54:45;11.48;;;6.18;;
42420;SDS011;28063;48.140;11.588;2023-02-28T04:57:10;11.98;;;5.38;;
42420;SDS011;28063;48.140;11.588;2023-02-28T04:59:36;10.82;;;5.05;;
42420;SDS011;28063;48.140;11.588;2023-02-28T05:02:01;13.00;;;5.78;;
42420;SDS011;28063;48.140;11.588;2023-02-28T05:04:32;10.73;;;6.20;;
42420;SDS011;28063;48.140;11.588;2023-02-28T05:07:00;9.88;;;5.65;;
42420;SDS011;28063;48.140;11.588;2023-02-28T05:09:26;16.25;;;6.57;;
42420;SDS011;28063;48.140;11.588;2023-02-28T05:11:53;10.35;;;5.88;;
42420;SDS011;28063;48.140;11.588;2023-02-28T05:14:19;8.90;;;5.28;;
42420;SDS011;28063;48.140;11.588;2023-02-28T05:16:45;9.95;;;5.45;;
42420;SDS011;28063;48.140;11.588;2023-02-28T05:19:10;9.40;;;5.68;;
42420;SDS011;28063;48.140;11.588;2023-02-28T05:21:40;10.85;;;5.50;;
42420;SDS011;28063;48.140;11.588;2023-02-28T05:24:12;10.38;;;6.28;;
42420;SDS011;28063;48.140;11.588;2023-02-28T05:26:39;12.13;;;5.68;;
42420;SDS011;28063;48.140;11.588;2023-02-28T05:29:06;9.52;;;5.45;;
42420;SDS011;28063;48.140;11.588;2023-02-28T05:31:33;9.38;;;5.70;;
42420;SDS011;28063;48.140;11.588;2023-02-28T05:33:58;11.32;;;7.28;;
42420;SDS011;28063;48.140;11.588;2023-02-28T05:36:24;16.75;;;6.97;;
42420;SDS011;28063;48.140;11.588;2023-02-28T05:38:50;10.02;;;6.00;;
42420;SDS011;28063;48.140;11.588;2023-02-28T05:41:17;10.60;;;5.40;;
42420;SDS011;28063;48.140;11.588;2023-02-28T05:43:44;12.30;;;6.07;;
42420;SDS011;28063;48.140;11.588;2023-02-28T05:46:10;12.23;;;6.85;;
42420;SDS011;28063;48.140;11.588;2023-02-28T05:48:37;12.02;;;6.13;;
42420;SDS011;28063;48.140;11.588;2023-02-28T05:51:05;10.02;;;5.30;;
42420;SDS011;28063;48.140;11.588;2023-02-28T05:53:32;11.23;;;5.40;;
42420;SDS011;28063;48.140;11.588;2023-02-28T05:55:58;9.13;;;6.03;;
42420;SDS011;28063;48.140;11.588;2023-02-28T05:58:24;13.40;;;7.15;;
42420;SDS011;28063;48.140;11.588;2023-02-28T06:00:54;9.48;;;5.90;;
42420;SDS011;28063;48.140;11.588;2023-02-28T06:03:19;11.82;;;5.80;;
42420;SDS011;28063;48.140;11.588;2023-02-28T06:05:45;15.55;;;7.72;;
42420;SDS011;28063;48.140;11.588;2023-02-28T06:08:11;12.80;;;8.02;;
42420;SDS011;28063;48.140;11.588;2023-02-28T06:10:37;12.57;;;7.10;;
42420;SDS011;28063;48.140;11.588;2023-02-28T06:13:03;17.98;;;9.23;;
42420;SDS011;28063;48.140;11.588;2023-02-28T06:15:30;15.07;;;7.75;;
42420;SDS011;28063;48.140;11.588;2023-02-28T06:17:56;12.38;;;7.63;;
42420;SDS011;28063;48.140;11.588;2023-02-28T06:20:22;15.63;;;8.00;;
42420;SDS011;28063;48.140;11.588;2023-02-28T06:22:49;14.65;;;7.57;;
42420;SDS011;28063;48.140;11.588;2023-02-28T06:25:19;16.17;;;9.82;;
42420;SDS011;28063;48.140;11.588;2023-02-28T06:27:45;20.45;;;9.00;;
42420;SDS011;28063;48.140;11.588;2023-02-28T06:30:11;11.80;;;7.05;;
42420;SDS011;28063;48.140;11.588;2023-02-28T06:32:37;16.00;;;8.93;;
42420;SDS011;28063;48.140;11.588;2023-02-28T06:35:03;14.82;;;7.57;;
42420;SDS011;28063;48.140;11.588;2023-02-28T06:37:30;9.73;;;6.30;;
42420;SDS011;28063;48.140;11.588;2023-02-28T06:39:56;9.75;;;6.18;;
42420;SDS011;28063;48.140;11.588;2023-02-28T06:42:23;15.07;;;7.55;;
42420;SDS011;28063;48.140;11.588;2023-02-28T06:44:53;17.80;;;8.88;;
42420;SDS011;28063;48.140;11.588;2023-02-28T06:47:20;15.68;;;8.40;;
42420;SDS011;28063;48.140;11.588;2023-02-28T06:49:46;19.67;;;10.23;;
42420;SDS011;28063;48.140;11.588;2023-02-28T06:52:12;16.00;;;9.27;;
42420;SDS011;28063;48.140;11.588;2023-02-28T06:54:37;11.95;;;7.43;;
42420;SDS011;28063;48.140;11.588;2023-02-28T06:57:03;16.90;;;9.73;;
42420;SDS011;28063;48.140;11.588;2023-02-28T06:59:29;15.63;;;9.30;;
42420;SDS011;28063;48.140;11.588;2023-02-28T07:01:55;15.23;;;8.15;;
42420;SDS011;28063;48.140;11.588;2023-02-28T07:04:21;14.63;;;8.27;;
42420;SDS011;28063;48.140;11.588;2023-02-28T07:06:47;18.85;;;8.65;;
42420;SDS011;28063;48.140;11.588;2023-02-28T07:09:13;17.60;;;9.52;;
42420;SDS011;28063;48.140;11.588;2023-02-28T07:11:39;18.23;;;8.88;;
42420;SDS011;28063;48.140;11.588;2023-02-28T07:14:05;16.75;;;10.27;;
42420;SDS011;28063;48.140;11.588;2023-02-28T07:16:32;15.60;;;8.73;;
42420;SDS011;28063;48.140;11.588;2023-02-28T07:18:58;15.07;;;7.97;;
42420;SDS011;28063;48.140;11.588;2023-02-28T07:21:24;11.20;;;6.63;;
42420;SDS011;28063;48.140;11.588;2023-02-28T07:23:50;10.63;;;6.88;;
42420;SDS011;28063;48.140;11.588;2023-02-28T07:26:17;11.13;;;7.05;;
42420;SDS011;28063;48.140;11.588;2023-02-28T07:28:44;10.88;;;7.03;;
42420;SDS011;28063;48.140;11.588;2023-02-28T07:31:12;17.27;;;8.25;;
42420;SDS011;28063;48.140;11.588;2023-02-28T07:33:42;13.85;;;8.10;;
42420;SDS011;28063;48.140;11.588;2023-02-28T07:36:09;14.05;;;8.00;;
42420;SDS011;28063;48.140;11.588;2023-02-28T07:38:41;16.60;;;10.82;;
42420;SDS011;28063;48.140;11.588;2023-02-28T07:41:08;16.92;;;9.32;;
42420;SDS011;28063;48.140;11.588;2023-02-28T07:43:34;16.10;;;10.10;;
42420;SDS011;28063;48.140;11.588;2023-02-28T07:46:03;19.42;;;10.15;;
42420;SDS011;28063;48.140;11.588;2023-02-28T07:48:30;16.23;;;8.18;;
42420;SDS011;28063;48.140;11.588;2023-02-28T07:50:56;12.93;;;7.70;;
42420;SDS011;28063;48.140;11.588;2023-02-28T07:53:22;13.82;;;7.53;;
42420;SDS011;28063;48.140;11.588;2023-02-28T07:55:48;15.85;;;8.77;;
42420;SDS011;28063;48.140;11.588;2023-02-28T07:58:14;15.45;;;9.43;;
42420;SDS011;28063;48.140;11.588;2023-02-28T08:00:39;20.00;;;10.93;;
42420;SDS011;28063;48.140;11.588;2023-02-28T08:03:05;18.52;;;10.13;;
42420;SDS011;28063;48.140;11.588;2023-02-28T08:05:31;15.80;;;9.40;;
42420;SDS011;28063;48.140;11.588;2023-02-28T08:07:56;16.02;;;7.70;;
42420;SDS011;28063;48.140;11.588;2023-02-28T08:10:22;14.43;;;8.52;;
42420;SDS011;28063;48.140;11.588;2023-02-28T08:12:49;13.43;;;7.35;;
42420;SDS011;28063;48.140;11.588;2023-02-28T08:15:15;16.50;;;9.68;;
42420;SDS011;28063;48.140;11.588;2023-02-28T08:17:41;15.23;;;8.63;;
42420;SDS011;28063;48.140;11.588;2023-02-28T08:20:06;13.50;;;7.65;;
42420;SDS011;28063;48.140;11.588;2023-02-28T08:22:34;12.27;;;7.55;;
42420;SDS011;28063;48.140;11.588;2023-02-28T08:24:59;13.18;;;8.38;;
42420;SDS011;28063;48.140;11.588;2023-02-28T08:27:25;11.98;;;7.07;;
42420;SDS011;28063;48.140;11.588;2023-02-28T08:29:50;11.13;;;6.53;;
42420;SDS011;28063;48.140;11.588;2023-02-28T08:32:16;13.98;;;7.90;;
42420;SDS011;28063;48.140;11.588;2023-02-28T08:34:42;11.60;;;7.30;;
42420;SDS011;28063;48.140;11.588;2023-02-28T08:37:07;10.40;;;7.00;;
42420;SDS011;28063;48.140;11.588;2023-02-28T08:39:34;14.15;;;7.97;;
42420;SDS011;28063;48.140;11.588;2023-02-28T08:42:01;14.85;;;8.88;;
42420;SDS011;28063;48.140;11.588;2023-02-28T08:44:27;16.60;;;9.35;;
42420;SDS011;28063;48.140;11.588;2023-02-28T08:46:53;14.63;;;7.72;;
42420;SDS011;28063;48.140;11.588;2023-02-28T08:49:19;11.95;;;6.13;;
42420;SDS011;28063;48.140;11.588;2023-02-28T08:51:44;18.63;;;10.40;;
42420;SDS011;28063;48.140;11.588;2023-02-28T08:54:10;20.08;;;9.93;;
42420;SDS011;28063;48.140;11.588;2023-02-28T08:56:41;14.52;;;7.97;;
42420;SDS011;28063;48.140;11.588;2023-02-28T08:59:08;18.67;;;9.68;;
42420;SDS011;28063;48.140;11.588;2023-02-28T09:01:37;15.52;;;9.18;;
42420;SDS011;28063;48.140;11.588;2023-02-28T09:04:03;18.05;;;9.45;;
42420;SDS011;28063;48.140;11.588;2023-02-28T09:06:29;19.58;;;10.75;;
42420;SDS011;28063;48.140;11.588;2023-02-28T09:08:57;19.02;;;10.00;;
42420;SDS011;28063;48.140;11.588;2023-02-28T09:11:24;17.45;;;10.55;;
42420;SDS011;28063;48.140;11.588;2023-02-28T09:13:50;18.85;;;9.63;;
42420;SDS011;28063;48.140;11.588;2023-02-28T09:16:16;18.33;;;10.18;;
42420;SDS011;28063;48.140;11.588;2023-02-28T09:18:42;17.25;;;8.95;;
42420;SDS011;28063;48.140;11.588;2023-02-28T09:21:09;12.68;;;8.32;;
42420;SDS011;28063;48.140;11.588;2023-02-28T09:23:39;10.77;;;6.75;;
42420;SDS011;28063;48.140;11.588;2023-02-28T09:26:12;13.73;;;8.10;;
42420;SDS011;28063;48.140;11.588;2023-02-28T09:28:42;14.13;;;8.85;;
42420;SDS011;28063;48.140;11.588;2023-02-28T09:31:15;14.63;;;8.40;;
42420;SDS011;28063;48.140;11.588;2023-02-28T09:33:45;10.02;;;6.90;;
42420;SDS011;28063;48.140;11.588;2023-02-28T09:36:12;15.82;;;9.55;;
42420;SDS011;28063;48.140;11.588;2023-02-28T09:38:37;20.20;;;10.73;;
42420;SDS011;28063;48.140;11.588;2023-02-28T09:41:14;18.20;;;10.38;;
42420;SDS011;28063;48.140;11.588;2023-02-28T09:43:44;17.20;;;10.25;;
42420;SDS011;28063;48.140;11.588;2023-02-28T09:46:29;18.33;;;9.23;;
42420;SDS011;28063;48.140;11.588;2023-02-28T09:49:06;17.05;;;10.27;;
42420;SDS011;28063;48.140;11.588;2023-02-28T09:54:20;13.13;;;8.40;;
42420;SDS011;28063;48.140;11.588;2023-02-28T09:56:52;15.88;;;9.65;;
42420;SDS011;28063;48.140;11.588;2023-02-28T10:02:13;12.43;;;7.65;;
42420;SDS011;28063;48.140;11.588;2023-02-28T10:04:54;14.20;;;9.60;;
42420;SDS011;28063;48.140;11.588;2023-02-28T10:07:33;16.95;;;9.70;;
42420;SDS011;28063;48.140;11.588;2023-02-28T10:10:07;14.52;;;8.82;;
42420;SDS011;28063;48.140;11.588;2023-02-28T10:12:52;13.68;;;9.18;;
42420;SDS011;28063;48.140;11.588;2023-02-28T10:15:21;13.27;;;8.70;;
42420;SDS011;28063;48.140;11.588;2023-02-28T10:17:50;10.57;;;7.10;;
42420;SDS011;28063;48.140;11.588;2023-02-28T10:20:34;12.48;;;7.57;;
42420;SDS011;28063;48.140;11.588;2023-02-28T10:23:16;11.05;;;6.75;;
42420;SDS011;28063;48.140;11.588;2023-02-28T10:25:47;10.73;;;6.15;;
42420;SDS011;28063;48.140;11.588;2023-02-28T10:28:19;9.98;;;6.35;;
42420;SDS011;28063;48.140;11.588;2023-02-28T10:30:46;11.57;;;6.72;;
42420;SDS011;28063;48.140;11.588;2023-02-28T10:33:23;8.13;;;5.13;;
42420;SDS011;28063;48.140;11.588;2023-02-28T10:35:52;10.57;;;6.63;;
42420;SDS011;28063;48.140;11.588;2023-02-28T10:38:26;10.52;;;7.25;;
42420;SDS011;28063;48.140;11.588;2023-02-28T10:43:33;12.45;;;7.30;;
42420;SDS011;28063;48.140;11.588;2023-02-28T10:48:38;8.50;;;5.75;;
42420;SDS011;28063;48.140;11.588;2023-02-28T10:51:11;12.88;;;8.00;;
42420;SDS011;28063;48.140;11.588;2023-02-28T11:01:41;9.27;;;5.20;;
42420;SDS011;28063;48.140;11.588;2023-02-28T11:06:47;8.95;;;5.72;;
42420;SDS011;28063;48.140;11.588;2023-02-28T11:09:44;8.25;;;5.50;;
42420;SDS011;28063;48.140;11.588;2023-02-28T11:15:17;11.65;;;7.30;;
42420;SDS011;28063;48.140;11.588;2023-02-28T11:17:55;13.50;;;8.45;;
42420;SDS011;28063;48.140;11.588;2023-02-28T11:20:28;11.73;;;6.82;;
42420;SDS011;28063;48.140;11.588;2023-02-28T11:22:57;10.07;;;6.20;;
42420;SDS011;28063;48.140;11.588;2023-02-28T11:25:26;11.07;;;6.75;;
42420;SDS011;28063;48.140;11.588;2023-02-28T11:27:57;11.05;;;7.00;;
42420;SDS011;28063;48.140;11.588;2023-02-28T11:33:18;7.72;;;5.35;;
42420;SDS011;28063;48.140;11.588;2023-02-28T11:35:48;8.02;;;5.05;;
42420;SDS011;28063;48.140;11.588;2023-02-28T11:38:15;10.75;;;6.38;;
42420;SDS011;28063;48.140;11.588;2023-02-28T11:46:06;9.60;;;5.97;;
42420;SDS011;28063;48.140;11.588;2023-02-28T11:48:42;11.30;;;6.32;;
42420;SDS011;28063;48.140;11.588;2023-02-28T11:51:33;10.77;;;6.32;;
42420;SDS011;28063;48.140;11.588;2023-02-28T11:54:18;16.58;;;9.68;;
42420;SDS011;28063;48.140;11.588;2023-02-28T12:05:18;9.88;;;5.90;;
42420;SDS011;28063;48.140;11.588;2023-02-28T12:10:39;11.23;;;7.15;;
42420;SDS011;28063;48.140;11.588;2023-02-28T12:13:26;11.63;;;6.72;;
42420;SDS011;28063;48.140;11.588;2023-02-28T12:19:01;13.90;;;8.73;;
42420;SDS011;28063;48.140;11.588;2023-02-28T12:26:52;11.73;;;7.70;;
42420;SDS011;28063;48.140;11.588;2023-02-28T12:29:27;9.27;;;6.03;;
42420;SDS011;28063;48.140;11.588;2023-02-28T12:31:56;8.57;;;5.82;;
42420;SDS011;28063;48.140;11.588;2023-02-28T12:34:43;10.63;;;6.45;;
42420;SDS011;28063;48.140;11.588;2023-02-28T12:37:17;9.02;;;5.93;;
42420;SDS011;28063;48.140;11.588;2023-02-28T12:39:50;9.32;;;6.25;;
42420;SDS011;28063;48.140;11.588;2023-02-28T12:42:26;12.07;;;7.47;;
42420;SDS011;28063;48.140;11.588;2023-02-28T12:44:59;9.82;;;6.80;;
42420;SDS011;28063;48.140;11.588;2023-02-28T12:47:27;7.53;;;5.43;;
42420;SDS011;28063;48.140;11.588;2023-02-28T12:49:54;11.27;;;5.70;;
42420;SDS011;28063;48.140;11.588;2023-02-28T12:55:38;13.00;;;7.25;;
42420;SDS011;28063;48.140;11.588;2023-02-28T12:58:32;7.95;;;5.75;;
42420;SDS011;28063;48.140;11.588;2023-02-28T13:09:17;9.82;;;6.85;;
42420;SDS011;28063;48.140;11.588;2023-02-28T13:11:45;9.98;;;5.93;;
42420;SDS011;28063;48.140;11.588;2023-02-28T13:19:34;6.43;;;4.78;;
42420;SDS011;28063;48.140;11.588;2023-02-28T13:22:03;15.57;;;8.13;;
42420;SDS011;28063;48.140;11.588;2023-02-28T13:29:39;11.30;;;6.18;;
42420;SDS011;28063;48.140;11.588;2023-02-28T13:39:55;8.15;;;5.10;;
42420;SDS011;28063;48.140;11.588;2023-02-28T13:47:29;12.85;;;6.97;;
42420;SDS011;28063;48.140;11.588;2023-02-28T14:01:15;10.50;;;6.75;;
42420;SDS011;28063;48.140;11.588;2023-02-28T14:07:05;8.73;;;5.05;;
42420;SDS011;28063;48.140;11.588;2023-02-28T14:09:41;10.43;;;7.03;;
42420;SDS011;28063;48.140;11.588;2023-02-28T14:18:25;8.43;;;5.10;;
42420;SDS011;28063;48.140;11.588;2023-02-28T14:21:02;7.25;;;4.68;;
42420;SDS011;28063;48.140;11.588;2023-02-28T14:36:57;4.88;;;3.80;;
42420;SDS011;28063;48.140;11.588;2023-02-28T14:39:25;7.45;;;4.88;;
42420;SDS011;28063;48.140;11.588;2023-02-28T14:41:52;9.18;;;6.00;;
42420;SDS011;28063;48.140;11.588;2023-02-28T14:44:21;9.57;;;5.95;;
42420;SDS011;28063;48.140;11.588;2023-02-28T14:46:55;9.70;;;6.40;;
42420;SDS011;28063;48.140;11.588;2023-02-28T14:49:37;9.38;;;6.35;;
42420;SDS011;28063;48.140;11.588;2023-02-28T14:52:17;10.60;;;6.85;;
42420;SDS011;28063;48.140;11.588;2023-02-28T14:54:51;9.35;;;6.45;;
42420;SDS011;28063;48.140;11.588;2023-02-28T14:57:23;9.18;;;5.70;;
42420;SDS011;28063;48.140;11.588;2023-02-28T15:00:09;11.73;;;7.22;;
42420;SDS011;28063;48.140;11.588;2023-02-28T15:02:39;9.45;;;6.65;;
42420;SDS011;28063;48.140;11.588;2023-02-28T15:07:34;11.27;;;5.13;;
42420;SDS011;28063;48.140;11.588;2023-02-28T15:10:13;9.93;;;5.18;;
42420;SDS011;28063;48.140;11.588;2023-02-28T15:12:45;8.93;;;5.82;;
42420;SDS011;28063;48.140;11.588;2023-02-28T15:15:17;10.30;;;6.72;;
42420;SDS011;28063;48.140;11.588;2023-02-28T15:17:47;8.25;;;5.78;;
42420;SDS011;28063;48.140;11.588;2023-02-28T15:20:19;11.98;;;6.07;;
42420;SDS011;28063;48.140;11.588;2023-02-28T15:22:45;10.93;;;6.40;;
42420;SDS011;28063;48.140;11.588;2023-02-28T15:25:13;10.57;;;5.38;;
42420;SDS011;28063;48.140;11.588;2023-02-28T15:27:44;10.32;;;5.90;;
42420;SDS011;28063;48.140;11.588;2023-02-28T15:30:21;9.52;;;6.80;;
42420;SDS011;28063;48.140;11.588;2023-02-28T15:33:01;8.95;;;5.47;;
42420;SDS011;28063;48.140;11.588;2023-02-28T15:35:40;13.02;;;6.78;;
42420;SDS011;28063;48.140;11.588;2023-02-28T15:38:22;12.20;;;6.68;;
42420;SDS011;28063;48.140;11.588;2023-02-28T15:40:52;7.90;;;5.40;;
42420;SDS011;28063;48.140;11.588;2023-02-28T15:43:27;8.63;;;5.40;;
42420;SDS011;28063;48.140;11.588;2023-02-28T15:45:58;6.18;;;4.45;;
42420;SDS011;28063;48.140;11.588;2023-02-28T15:48:33;9.35;;;5.45;;
42420;SDS011;28063;48.140;11.588;2023-02-28T15:51:12;12.55;;;7.07;;
42420;SDS011;28063;48.140;11.588;2023-02-28T15:53:50;9.57;;;5.68;;
42420;SDS011;28063;48.140;11.588;2023-02-28T15:56:46;11.27;;;6.22;;
42420;SDS011;28063;48.140;11.588;2023-02-28T15:59:26;11.13;;;6.43;;
42420;SDS011;28063;48.140;11.588;2023-02-28T16:02:14;12.38;;;6.90;;
42420;SDS011;28063;48.140;11.588;2023-02-28T16:04:55;9.77;;;6.38;;
42420;SDS011;28063;48.140;11.588;2023-02-28T16:07:34;13.40;;;7.97;;
42420;SDS011;28063;48.140;11.588;2023-02-28T16:10:01;12.77;;;7.28;;
42420;SDS011;28063;48.140;11.588;2023-02-28T16:12:28;19.02;;;8.70;;
42420;SDS011;28063;48.140;11.588;2023-02-28T16:14:56;9.80;;;6.32;;
42420;SDS011;28063;48.140;11.588;2023-02-28T16:17:25;9.68;;;6.72;;
42420;SDS011;28063;48.140;11.588;2023-02-28T16:19:53;10.15;;;7.30;;
42420;SDS011;28063;48.140;11.588;2023-02-28T16:22:19;15.13;;;9.32;;
42420;SDS011;28063;48.140;11.588;2023-02-28T16:24:45;11.75;;;8.23;;
42420;SDS011;28063;48.140;11.588;2023-02-28T16:27:18;14.77;;;8.27;;
42420;SDS011;28063;48.140;11.588;2023-02-28T16:29:56;12.73;;;7.60;;
42420;SDS011;28063;48.140;11.588;2023-02-28T16:32:21;11.35;;;6.70;;
42420;SDS011;28063;48.140;11.588;2023-02-28T16:34:47;12.85;;;7.63;;
42420;SDS011;28063;48.140;11.588;2023-02-28T16:37:14;12.57;;;7.10;;
42420;SDS011;28063;48.140;11.588;2023-02-28T16:39:41;10.98;;;6.57;;
42420;SDS011;28063;48.140;11.588;2023-02-28T16:42:16;8.02;;;5.00;;
42420;SDS011;28063;48.140;11.588;2023-02-28T16:44:47;10.32;;;6.75;;
42420;SDS011;28063;48.140;11.588;2023-02-28T16:47:13;11.57;;;5.78;;
42420;SDS011;28063;48.140;11.588;2023-02-28T16:49:39;8.43;;;5.90;;
42420;SDS011;28063;48.140;11.588;2023-02-28T16:52:07;12.80;;;7.18;;
42420;SDS011;28063;48.140;11.588;2023-02-28T16:54:33;10.05;;;6.47;;
42420;SDS011;28063;48.140;11.588;2023-02-28T16:56:59;9.65;;;5.55;;
42420;SDS011;28063;48.140;11.588;2023-02-28T16:59:25;14.57;;;8.73;;
42420;SDS011;28063;48.140;11.588;2023-02-28T17:01:52;11.27;;;7.45;;
42420;SDS011;28063;48.140;11.588;2023-02-28T17:04:19;12.85;;;8.25;;
42420;SDS011;28063;48.140;11.588;2023-02-28T17:06:45;9.70;;;6.30;;
42420;SDS011;28063;48.140;11.588;2023-02-28T17:09:14;11.13;;;6.85;;
42420;SDS011;28063;48.140;11.588;2023-02-28T17:11:46;8.60;;;5.75;;
42420;SDS011;28063;48.140;11.588;2023-02-28T17:14:12;10.73;;;6.20;;
42420;SDS011;28063;48.140;11.588;2023-02-28T17:16:38;9.00;;;5.63;;
42420;SDS011;28063;48.140;11.588;2023-02-28T17:19:13;13.02;;;5.55;;
42420;SDS011;28063;48.140;11.588;2023-02-28T17:21:42;9.27;;;5.40;;